Lake Village, AR (71653)

3:33 AM CST on December 03, 2016 (GMT -0600)
Q102 Downtown Greenville | | Change Station

Elev 141 ft 33.41 °N, 91.06 °W | Updated 21 seconds ago

Clear
Clear
51.3 °F
Feels Like 51.3 °F
N
0.0
Wind Variable Wind from East
Gusts 0.7 mph

Today
High -- | Low -- °F
--% Chance of Precip.
Yesterday
High -- | Low -- °F
Precip. -- in
Pressure 30.29 in
Visibility 10.0 miles
Clouds Clear
Dew Point 40 °F
Humidity 64%
Rainfall 0.00 in
Snow Depth Not available.
6:52 AM 4:57 PM
Waxing Crescent, 13% visible
METAR KGLH 030753Z AUTO 00000KT 10SM CLR 09/03 A3027 RMK AO2 SLP256 T00940033
Pressure 30.29 in
Visibility 10.0 miles
Clouds Clear
Dew Point 40 °F
Humidity 64%
Rainfall 0.00 in
Snow Depth Not available.
6:52 AM 4:57 PM
Waxing Crescent, 13% visible
METAR KGLH 030753Z AUTO 00000KT 10SM CLR 09/03 A3027 RMK AO2 SLP256 T00940033

10-Day Weather Forecast

Almanac

Astronomy

Dec. 03, 2016 Rise Set
Actual Time
Civil Twilight
Nautical Twilight
Astronomical Twilight
Moon
Length of Visible Light
Length of Day
Tomorrow will be .
, % of the Moon is Illuminated

Today's Extremes

State Highs State Lows

Community

WunderPhotos

Upload Photos

1,955,434 photos uploaded!

WunderBlog® & News

Nearby

Air Quality

  Air Quality AQ Index Pollutant
Not available.

Snow Depth

Station Depth Elevation

Earthquake Activity

City Distance Mag. Time & Date
Minimum magnitude displayed is 2.5.

Coastal Water Temperatures

Place Temperature

Stations

Nearby Weather Stations

Station Location Temp. Windchill Dew Point Humidity Wind Precip. Elev Updated Type
                   

Watches & Warnings

There are currently no watches in effect.